createdAt,value
2023-03-06T00:00:59.282Z,98074.59
2023-03-06T00:02:01.408Z,98084.94
2023-03-06T00:03:03.972Z,98075.44
2023-03-06T00:04:08.332Z,98077.25
2023-03-06T00:05:10.463Z,98081.56
2023-03-06T00:06:12.525Z,98087.66
2023-03-06T00:07:14.661Z,98084.94
2023-03-06T00:08:16.729Z,98078.03
2023-03-06T00:09:18.695Z,98085.84
2023-03-06T00:10:24.509Z,98081.41
2023-03-06T00:11:26.485Z,98087.47
2023-03-06T00:12:28.481Z,98089.28
2023-03-06T00:13:32.404Z,98084.09
2023-03-06T00:14:34.353Z,98097.03
2023-03-06T00:15:36.507Z,98089.34
2023-03-06T00:16:38.673Z,98096.25
2023-03-06T00:17:41.486Z,98091.97
2023-03-06T00:18:44.286Z,98088.50
2023-03-06T00:19:46.267Z,98090.25
2023-03-06T00:20:48.252Z,98105.72
2023-03-06T00:21:50.614Z,98097.03
2023-03-06T00:22:53.141Z,98104.03
2023-03-06T00:23:55.120Z,98104.91
2023-03-06T00:24:57.229Z,98098.81
2023-03-06T00:25:59.216Z,98098.81
2023-03-06T00:27:01.287Z,98106.63
2023-03-06T00:28:03.321Z,98109.22
2023-03-06T00:29:05.534Z,98107.41
2023-03-06T00:30:08.582Z,98110.94
2023-03-06T00:31:10.831Z,98110.94
2023-03-06T00:32:12.828Z,98108.31
2023-03-06T00:33:14.847Z,98108.25
2023-03-06T00:34:16.795Z,98116.91
2023-03-06T00:35:18.799Z,98124.56
2023-03-06T00:36:21.002Z,98124.69
2023-03-06T00:37:24.875Z,98116.00
2023-03-06T00:38:28.738Z,98117.81
2023-03-06T00:39:31.038Z,98120.31
2023-03-06T00:40:33.178Z,98114.31
2023-03-06T00:41:35.265Z,98130.75
2023-03-06T00:42:37.337Z,98126.53
2023-03-06T00:43:40.016Z,98132.56
2023-03-06T00:44:42.363Z,98135.09
2023-03-06T00:45:44.361Z,98130.81
2023-03-06T00:46:46.536Z,98132.50
2023-03-06T00:47:48.654Z,98134.97
2023-03-06T00:48:50.647Z,98134.19
2023-03-06T00:49:52.539Z,98144.66
2023-03-06T00:50:54.720Z,98144.66
2023-03-06T00:51:56.776Z,98163.69
2023-03-06T00:52:58.725Z,98155.06
2023-03-06T00:54:00.900Z,98145.50
2023-03-06T00:55:02.906Z,98148.09
2023-03-06T00:56:05.313Z,98155.06
2023-03-06T00:57:07.939Z,98151.56
2023-03-06T00:58:10.304Z,98145.56
2023-03-06T00:59:12.344Z,98151.59
2023-03-06T01:00:15.295Z,98168.84
2023-03-06T01:01:17.468Z,98156.81
2023-03-06T01:02:19.734Z,98154.09
2023-03-06T01:03:21.826Z,98160.13
2023-03-06T01:04:24.505Z,98170.53
2023-03-06T01:05:26.760Z,98165.41
2023-03-06T01:06:29.031Z,98172.34
2023-03-06T01:07:34.266Z,98170.53
2023-03-06T01:08:36.517Z,98167.03
2023-03-06T01:09:38.656Z,98168.72
2023-03-06T01:10:41.578Z,98178.22
2023-03-06T01:11:43.768Z,98180.72
2023-03-06T01:12:46.057Z,98171.25
2023-03-06T01:13:48.205Z,98173.06
2023-03-06T01:14:50.177Z,98172.22
2023-03-06T01:15:53.080Z,98180.84
2023-03-06T01:16:55.181Z,98183.47
2023-03-06T01:17:57.234Z,98173.00
2023-03-06T01:18:59.347Z,98189.31
2023-03-06T01:20:01.420Z,98189.41
2023-03-06T01:21:04.206Z,98181.59
2023-03-06T01:22:06.339Z,98195.50
2023-03-06T01:23:08.478Z,98197.25
2023-03-06T01:24:10.696Z,98197.22
2023-03-06T01:25:13.264Z,98202.38
2023-03-06T01:26:15.618Z,98196.34
2023-03-06T01:27:17.750Z,98197.25
2023-03-06T01:28:19.994Z,98195.53
2023-03-06T01:29:21.975Z,98189.44
2023-03-06T01:30:23.927Z,98204.25
2023-03-06T01:31:26.269Z,98199.88
2023-03-06T01:32:28.612Z,98200.69
2023-03-06T01:33:30.682Z,98203.13
2023-03-06T01:34:32.633Z,98204.88
2023-03-06T01:35:34.599Z,98204.16
2023-03-06T01:36:36.635Z,98208.56
2023-03-06T01:37:39.785Z,98209.28
2023-03-06T01:38:41.855Z,98222.28
2023-03-06T01:39:43.848Z,98208.56
2023-03-06T01:40:46.639Z,98221.56
2023-03-06T01:41:48.595Z,98226.81
2023-03-06T01:42:51.187Z,98233.59
2023-03-06T01:43:53.289Z,98232.69
2023-03-06T01:45:13.413Z,98234.50
2023-03-06T01:46:42.435Z,98240.50
2023-03-06T01:47:45.368Z,98238.69
2023-03-06T01:48:48.754Z,98235.25
2023-03-06T01:49:51.027Z,98237.03
2023-03-06T01:50:53.368Z,98237.09
2023-03-06T01:52:01.902Z,98243.22
2023-03-06T01:53:04.479Z,98254.47
2023-03-06T01:54:14.874Z,98247.50
2023-03-06T01:55:22.248Z,98260.56
2023-03-06T01:56:25.489Z,98245.75
2023-03-06T01:57:40.944Z,98275.16
2023-03-06T01:58:44.273Z,98265.53
2023-03-06T01:59:49.653Z,98261.06
2023-03-06T02:00:51.770Z,98268.13
2023-03-06T02:01:54.284Z,98263.88
2023-03-06T02:03:01.876Z,98270.06
2023-03-06T02:04:04.069Z,98272.63
2023-03-06T02:05:08.730Z,98271.81
2023-03-06T02:06:11.033Z,98266.63
2023-03-06T02:07:15.691Z,98276.91
2023-03-06T02:08:20.641Z,98275.19
2023-03-06T02:09:23.113Z,98278.66
2023-03-06T02:10:25.898Z,98273.44
2023-03-06T02:11:28.081Z,98281.25
2023-03-06T02:12:30.327Z,98289.84
2023-03-06T02:13:32.777Z,98283.81
2023-03-06T02:14:35.458Z,98291.66
2023-03-06T02:15:37.589Z,98288.22
2023-03-06T02:16:40.038Z,98296.97
2023-03-06T02:17:46.463Z,98294.31
2023-03-06T02:18:49.288Z,98299.50
2023-03-06T02:20:09.483Z,98302.91
2023-03-06T02:21:20.512Z,98304.66
2023-03-06T02:22:23.628Z,98317.53
2023-03-06T02:23:30.565Z,98309.78
2023-03-06T02:24:46.569Z,98307.19
2023-03-06T02:25:51.979Z,98315.06
2023-03-06T02:26:55.954Z,98313.31
2023-03-06T02:27:57.914Z,98309.88
2023-03-06T02:29:00.223Z,98320.31
2023-03-06T02:30:07.353Z,98316.88
2023-03-06T02:31:26.119Z,98312.56
2023-03-06T02:32:28.283Z,98320.31
2023-03-06T02:33:30.385Z,98320.25
2023-03-06T02:34:38.509Z,98325.50
2023-03-06T02:35:43.743Z,98325.50
2023-03-06T02:36:50.220Z,98330.72
2023-03-06T02:37:53.135Z,98332.38
2023-03-06T02:38:55.398Z,98329.81
2023-03-06T02:40:08.528Z,98328.13
2023-03-06T02:41:10.677Z,98338.56
2023-03-06T02:42:18.864Z,98336.75
2023-03-06T02:43:26.028Z,98341.16
2023-03-06T02:44:28.977Z,98346.31
2023-03-06T02:45:35.917Z,98335.03
2023-03-06T02:46:37.921Z,98337.63
2023-03-06T02:47:39.987Z,98345.50
2023-03-06T02:48:41.985Z,98347.22
2023-03-06T02:49:43.991Z,98349.84
2023-03-06T02:50:46.961Z,98351.56
2023-03-06T02:51:49.085Z,98354.94
2023-03-06T02:52:51.139Z,98352.28
2023-03-06T02:53:53.425Z,98356.59
2023-03-06T02:54:55.406Z,98350.53
2023-03-06T02:55:57.612Z,98353.16
2023-03-06T02:56:59.593Z,98362.72
2023-03-06T02:58:02.228Z,98354.88
2023-03-06T02:59:04.196Z,98354.06
2023-03-06T03:00:06.947Z,98356.72
2023-03-06T03:01:09.134Z,98354.97
2023-03-06T03:02:11.545Z,98354.97
2023-03-06T03:03:13.638Z,98352.44
2023-03-06T03:04:15.916Z,98357.69
2023-03-06T03:05:18.238Z,98359.44
2023-03-06T03:06:20.396Z,98349.03
2023-03-06T03:07:22.368Z,98367.97
2023-03-06T03:08:24.404Z,98368.03
2023-03-06T03:09:26.428Z,98378.47
2023-03-06T03:10:28.594Z,98367.22
2023-03-06T03:11:30.763Z,98380.22
2023-03-06T03:12:33.464Z,98370.69
2023-03-06T03:13:35.375Z,98378.50
2023-03-06T03:14:37.489Z,98384.53
2023-03-06T03:15:39.664Z,98377.63
2023-03-06T03:16:41.800Z,98377.53
2023-03-06T03:17:43.889Z,98388.84
2023-03-06T03:18:48.126Z,98387.13
2023-03-06T03:19:50.018Z,98382.72
2023-03-06T03:20:52.054Z,98381.09
2023-03-06T03:21:54.053Z,98392.34
2023-03-06T03:22:56.613Z,98389.78
2023-03-06T03:23:58.593Z,98399.28
2023-03-06T03:25:00.579Z,98398.44
2023-03-06T03:26:17.856Z,98404.59
2023-03-06T03:27:19.964Z,98401.94
2023-03-06T03:28:21.976Z,98403.69
2023-03-06T03:29:24.009Z,98407.03
2023-03-06T03:30:25.977Z,98416.59
2023-03-06T03:31:28.166Z,98421.00
2023-03-06T03:32:30.244Z,98425.34
2023-03-06T03:33:32.638Z,98422.75
2023-03-06T03:34:34.800Z,98427.09
2023-03-06T03:35:37.123Z,98427.94
2023-03-06T03:36:39.544Z,98426.19
2023-03-06T03:37:41.579Z,98433.94
2023-03-06T03:38:43.817Z,98437.28
2023-03-06T03:39:45.822Z,98443.41
2023-03-06T03:40:47.808Z,98438.25
2023-03-06T03:41:49.808Z,98440.84
2023-03-06T03:42:51.946Z,98446.00
2023-03-06T03:43:54.069Z,98446.03
2023-03-06T03:44:56.004Z,98447.75
2023-03-06T03:45:57.891Z,98447.75
2023-03-06T03:46:59.892Z,98453.84
2023-03-06T03:48:01.867Z,98453.84
2023-03-06T03:49:04.842Z,98471.94
2023-03-06T03:50:08.110Z,98460.69
2023-03-06T03:51:12.580Z,98474.50
2023-03-06T03:52:14.592Z,98478.00
2023-03-06T03:53:17.019Z,98471.09
2023-03-06T03:54:19.214Z,98481.50
2023-03-06T03:55:21.196Z,98479.72
2023-03-06T03:56:24.359Z,98479.75
2023-03-06T03:57:26.370Z,98481.44
2023-03-06T03:58:28.436Z,98484.81
2023-03-06T03:59:30.547Z,98480.50
2023-03-06T04:00:32.616Z,98491.72
2023-03-06T04:01:34.794Z,98482.25
2023-03-06T04:02:36.823Z,98484.91
2023-03-06T04:03:38.828Z,98488.47
2023-03-06T04:04:40.981Z,98489.34
2023-03-06T04:05:43.108Z,98491.94
2023-03-06T04:06:45.020Z,98493.66
2023-03-06T04:07:47.089Z,98498.75
2023-03-06T04:08:49.147Z,98497.88
2023-03-06T04:09:51.094Z,98498.72
2023-03-06T04:10:54.342Z,98500.47
2023-03-06T04:11:56.248Z,98506.56
2023-03-06T04:12:58.226Z,98506.56
2023-03-06T04:14:00.301Z,98509.94
2023-03-06T04:15:02.696Z,98506.47
2023-03-06T04:16:05.807Z,98505.63
2023-03-06T04:17:07.733Z,98507.41
2023-03-06T04:18:09.687Z,98514.22
2023-03-06T04:19:11.913Z,98515.13
2023-03-06T04:20:14.712Z,98518.63
2023-03-06T04:21:16.877Z,98516.09
2023-03-06T04:22:18.928Z,98509.13
2023-03-06T04:23:23.038Z,98517.78
2023-03-06T04:24:25.447Z,98528.22
2023-03-06T04:25:27.414Z,98524.72
2023-03-06T04:26:29.573Z,98530.78
2023-03-06T04:27:31.554Z,98529.88
2023-03-06T04:28:33.693Z,98529.78
2023-03-06T04:29:35.763Z,98524.69
2023-03-06T04:30:38.462Z,98532.53
2023-03-06T04:31:40.630Z,98539.53
2023-03-06T04:32:42.678Z,98537.78
2023-03-06T04:33:44.776Z,98535.19
2023-03-06T04:34:46.759Z,98545.59
2023-03-06T04:35:48.946Z,98547.34
2023-03-06T04:36:51.010Z,98557.69
2023-03-06T04:37:53.106Z,98549.03
2023-03-06T04:38:55.324Z,98550.75
2023-03-06T04:39:57.366Z,98553.41
2023-03-06T04:40:59.507Z,98552.50
2023-03-06T04:42:01.791Z,98549.88
2023-03-06T04:43:04.716Z,98550.75
2023-03-06T04:44:07.177Z,98547.25
2023-03-06T04:45:09.554Z,98560.13
2023-03-06T04:46:11.968Z,98557.47
2023-03-06T04:47:14.486Z,98566.97
2023-03-06T04:48:18.726Z,98560.06
2023-03-06T04:49:20.859Z,98565.28
2023-03-06T04:50:24.188Z,98560.03
2023-03-06T04:51:26.338Z,98573.03
2023-03-06T04:52:28.627Z,98562.63
2023-03-06T04:53:30.676Z,98571.28
2023-03-06T04:54:33.088Z,98572.09
2023-03-06T04:55:35.539Z,98570.38
2023-03-06T04:56:37.516Z,98577.28
2023-03-06T04:57:43.048Z,98575.59
2023-03-06T04:58:45.204Z,98577.28
2023-03-06T04:59:47.177Z,98580.75
2023-03-06T05:00:49.098Z,98586.78
2023-03-06T05:01:51.112Z,98588.50
2023-03-06T05:02:53.205Z,98588.50
2023-03-06T05:03:55.273Z,98585.94
2023-03-06T05:04:57.492Z,98586.78
2023-03-06T05:05:59.660Z,98594.50
2023-03-06T05:07:01.572Z,98588.41
2023-03-06T05:08:03.756Z,98598.75
2023-03-06T05:09:05.903Z,98596.09
2023-03-06T05:10:11.453Z,98599.53
2023-03-06T05:11:13.550Z,98597.81
2023-03-06T05:12:15.541Z,98603.84
2023-03-06T05:13:17.455Z,98610.78
2023-03-06T05:14:19.689Z,98605.47
2023-03-06T05:15:21.840Z,98608.88
2023-03-06T05:16:23.955Z,98604.50
2023-03-06T05:17:25.887Z,98607.97
2023-03-06T05:18:28.012Z,98603.56
2023-03-06T05:19:30.087Z,98613.88
2023-03-06T05:20:32.411Z,98611.19
2023-03-06T05:21:34.499Z,98611.13
2023-03-06T05:22:36.482Z,98609.44
2023-03-06T05:23:38.899Z,98613.69
2023-03-06T05:24:40.832Z,98625.88
2023-03-06T05:25:42.924Z,98612.78
2023-03-06T05:26:44.913Z,98616.22
2023-03-06T05:27:47.183Z,98625.47
2023-03-06T05:28:49.286Z,98621.78
2023-03-06T05:29:51.234Z,98632.59
2023-03-06T05:30:53.348Z,98625.66
2023-03-06T05:31:55.513Z,98619.72
2023-03-06T05:32:57.630Z,98636.22
2023-03-06T05:34:00.825Z,98638.50
2023-03-06T05:35:03.033Z,98636.41
2023-03-06T05:36:07.532Z,98638.25
2023-03-06T05:37:09.662Z,98641.81
2023-03-06T05:38:11.876Z,98641.81
2023-03-06T05:39:13.883Z,98642.66
2023-03-06T05:40:17.141Z,98643.44
2023-03-06T05:41:19.572Z,98646.97
2023-03-06T05:42:21.755Z,98644.47
2023-03-06T05:43:23.838Z,98641.88
2023-03-06T05:44:31.254Z,98641.81
2023-03-06T05:45:33.277Z,98641.97
2023-03-06T05:46:35.432Z,98649.06
2023-03-06T05:47:37.584Z,98648.31
2023-03-06T05:48:39.563Z,98644.88
2023-03-06T05:49:41.506Z,98650.16
2023-03-06T05:50:43.395Z,98654.56
2023-03-06T05:51:45.442Z,98655.53
2023-03-06T05:52:47.599Z,98656.47
2023-03-06T05:53:49.925Z,98662.66
2023-03-06T05:54:54.146Z,98654.84
2023-03-06T05:56:00.594Z,98654.91
2023-03-06T05:57:04.391Z,98660.00
2023-03-06T05:58:06.386Z,98655.59
2023-03-06T05:59:08.405Z,98655.69
2023-03-06T06:00:11.416Z,98663.50
2023-03-06T06:01:19.272Z,98660.84
2023-03-06T06:02:21.706Z,98660.00
2023-03-06T06:03:24.162Z,98665.22
2023-03-06T06:04:26.739Z,98672.97
2023-03-06T06:05:28.748Z,98662.56
2023-03-06T06:06:30.751Z,98667.75
2023-03-06T06:07:32.770Z,98670.44
2023-03-06T06:08:35.093Z,98668.72
2023-03-06T06:09:37.161Z,98670.44
2023-03-06T06:10:40.330Z,98677.38
2023-03-06T06:11:42.417Z,98674.72
2023-03-06T06:12:44.559Z,98676.50
2023-03-06T06:13:48.323Z,98673.84
2023-03-06T06:14:50.312Z,98684.13
2023-03-06T06:15:52.377Z,98678.94
2023-03-06T06:16:54.626Z,98694.50
2023-03-06T06:17:57.726Z,98690.97
2023-03-06T06:19:00.304Z,98696.06
2023-03-06T06:20:02.412Z,98692.59
2023-03-06T06:21:12.236Z,98693.47
2023-03-06T06:22:14.229Z,98695.41
2023-03-06T06:23:16.202Z,98691.13
2023-03-06T06:24:21.216Z,98698.88
2023-03-06T06:25:23.159Z,98694.50
2023-03-06T06:26:25.120Z,98694.47
2023-03-06T06:27:27.063Z,98699.72
2023-03-06T06:28:30.036Z,98702.38
2023-03-06T06:29:33.401Z,98700.56
2023-03-06T06:30:35.572Z,98708.28
2023-03-06T06:31:38.272Z,98700.47
2023-03-06T06:32:40.450Z,98707.44
2023-03-06T06:33:43.416Z,98697.81
2023-03-06T06:34:45.346Z,98703.75
2023-03-06T06:35:47.353Z,98704.66
2023-03-06T06:36:52.859Z,98706.34
2023-03-06T06:37:55.404Z,98707.97
2023-03-06T06:38:57.605Z,98702.78
2023-03-06T06:39:59.608Z,98705.28
2023-03-06T06:41:35.733Z,98704.34
2023-03-06T06:42:33.248Z,98713.75
2023-03-06T06:43:39.108Z,98711.13
2023-03-06T06:44:41.275Z,98709.44
2023-03-06T06:45:44.358Z,98712.22
2023-03-06T06:47:21.151Z,98713.13
2023-03-06T06:48:09.492Z,98719.22
2023-03-06T06:49:14.493Z,98710.53
2023-03-06T06:50:16.434Z,98715.69
2023-03-06T06:51:18.683Z,98711.22
2023-03-06T06:52:21.421Z,98719.94
2023-03-06T06:53:23.834Z,98720.94
2023-03-06T06:54:26.055Z,98720.94
2023-03-06T06:55:28.114Z,98727.97
2023-03-06T06:56:30.106Z,98726.28
2023-03-06T06:57:32.112Z,98721.16
2023-03-06T06:58:34.420Z,98717.75
2023-03-06T06:59:36.518Z,98728.19
2023-03-06T07:00:38.502Z,98736.81
2023-03-06T07:01:40.794Z,98727.22
2023-03-06T07:02:42.776Z,98728.94
2023-03-06T07:03:44.781Z,98731.44
2023-03-06T07:05:02.511Z,98724.50
2023-03-06T07:06:07.403Z,98726.22
2023-03-06T07:07:09.382Z,98724.50
2023-03-06T07:08:11.508Z,98730.59
2023-03-06T07:09:14.166Z,98727.22
2023-03-06T07:10:16.284Z,98723.81
2023-03-06T07:11:19.244Z,98722.06
2023-03-06T07:12:21.316Z,98724.75
2023-03-06T07:13:23.474Z,98725.59
2023-03-06T07:14:25.633Z,98725.53
2023-03-06T07:15:30.960Z,98733.28
2023-03-06T07:16:33.023Z,98735.84
2023-03-06T07:17:34.997Z,98724.56
2023-03-06T07:18:37.025Z,98729.66
2023-03-06T07:19:39.641Z,98737.47
2023-03-06T07:20:41.792Z,98737.44
2023-03-06T07:21:43.830Z,98741.75
2023-03-06T07:22:51.426Z,98738.19
2023-03-06T07:23:54.473Z,98747.88
2023-03-06T07:24:56.528Z,98747.09
2023-03-06T07:25:58.767Z,98745.41
2023-03-06T07:27:00.743Z,98741.13
2023-03-06T07:28:02.708Z,98749.91
2023-03-06T07:29:04.754Z,98758.59
2023-03-06T07:30:07.858Z,98755.09
2023-03-06T07:31:11.740Z,98755.09
2023-03-06T07:32:13.823Z,98758.59
2023-03-06T07:33:16.544Z,98754.31
2023-03-06T07:34:18.575Z,98755.22
2023-03-06T07:35:21.085Z,98755.16
2023-03-06T07:36:24.009Z,98744.69
2023-03-06T07:37:26.142Z,98749.78
2023-03-06T07:38:28.092Z,98749.78
2023-03-06T07:39:30.510Z,98749.69
2023-03-06T07:40:32.662Z,98757.56
2023-03-06T07:41:34.846Z,98753.34
2023-03-06T07:42:36.867Z,98758.56
2023-03-06T07:43:39.610Z,98757.63
2023-03-06T07:44:42.029Z,98761.88
2023-03-06T07:45:44.137Z,98761.72
2023-03-06T07:46:46.299Z,98759.81
2023-03-06T07:47:50.831Z,98763.91
2023-03-06T07:48:52.997Z,98771.69
2023-03-06T07:49:56.556Z,98769.94
2023-03-06T07:51:07.127Z,98769.97
2023-03-06T07:52:09.324Z,98770.78
2023-03-06T07:53:11.691Z,98765.56
2023-03-06T07:54:13.919Z,98773.28
2023-03-06T07:55:16.251Z,98771.50
2023-03-06T07:56:18.261Z,98769.66
2023-03-06T07:57:20.398Z,98773.03
2023-03-06T07:58:22.577Z,98772.06
2023-03-06T07:59:25.825Z,98773.75
2023-03-06T08:00:27.936Z,98777.28
2023-03-06T08:01:30.005Z,98774.75
2023-03-06T08:02:32.340Z,98776.50
2023-03-06T08:03:34.511Z,98774.69
2023-03-06T08:04:36.771Z,98776.44
2023-03-06T08:05:38.812Z,98777.22
2023-03-06T08:06:40.854Z,98782.53
2023-03-06T08:07:46.131Z,98772.00
2023-03-06T08:08:50.057Z,98781.53
2023-03-06T08:09:52.350Z,98778.81
2023-03-06T08:10:54.386Z,98781.25
2023-03-06T08:11:56.849Z,98784.63
2023-03-06T08:12:58.938Z,98781.94
2023-03-06T08:14:00.882Z,98778.41
2023-03-06T08:15:03.614Z,98787.84
2023-03-06T08:16:06.455Z,98791.22
2023-03-06T08:17:08.669Z,98792.84
2023-03-06T08:18:10.603Z,98790.91
2023-03-06T08:19:12.711Z,98790.75
2023-03-06T08:20:14.702Z,98785.41
2023-03-06T08:21:19.879Z,98787.00
2023-03-06T08:22:21.837Z,98793.88
2023-03-06T08:23:23.843Z,98792.09
2023-03-06T08:24:25.987Z,98795.41
2023-03-06T08:25:28.113Z,98786.81
2023-03-06T08:26:32.228Z,98795.66
2023-03-06T08:27:34.699Z,98800.66
2023-03-06T08:28:36.822Z,98791.31
2023-03-06T08:29:38.952Z,98787.03
2023-03-06T08:30:40.926Z,98794.88
2023-03-06T08:31:45.279Z,98801.09
2023-03-06T08:32:47.410Z,98799.44
2023-03-06T08:33:49.945Z,98800.34
2023-03-06T08:34:52.070Z,98801.47
2023-03-06T08:35:54.197Z,98799.72
2023-03-06T08:36:56.146Z,98806.72
2023-03-06T08:37:58.304Z,98803.28
2023-03-06T08:39:00.763Z,98804.22
2023-03-06T08:40:04.830Z,98804.47
2023-03-06T08:41:06.918Z,98807.22
2023-03-06T08:42:10.196Z,98808.19
2023-03-06T08:43:14.091Z,98811.72
2023-03-06T08:44:16.277Z,98805.44
2023-03-06T08:45:18.244Z,98811.53
2023-03-06T08:46:23.513Z,98808.88
2023-03-06T08:47:25.639Z,98816.63
2023-03-06T08:48:28.309Z,98819.44
2023-03-06T08:49:30.420Z,98806.38
2023-03-06T08:50:32.532Z,98811.66
2023-03-06T08:51:34.486Z,98815.13
2023-03-06T08:52:36.462Z,98816.06
2023-03-06T08:53:43.501Z,98812.69
2023-03-06T08:54:46.549Z,98819.66
2023-03-06T08:55:48.451Z,98812.75
2023-03-06T08:56:50.591Z,98815.25
2023-03-06T08:57:52.584Z,98820.41
2023-03-06T08:58:56.421Z,98820.41
2023-03-06T08:59:58.585Z,98817.84
2023-03-06T09:01:00.707Z,98816.94
2023-03-06T09:02:04.185Z,98816.00
2023-03-06T09:03:06.214Z,98814.16
2023-03-06T09:04:12.511Z,98814.88
2023-03-06T09:05:14.546Z,98812.38
2023-03-06T09:06:17.133Z,98812.31
2023-03-06T09:07:19.207Z,98820.81
2023-03-06T09:08:21.099Z,98822.38
2023-03-06T09:09:23.355Z,98824.00
2023-03-06T09:10:26.909Z,98823.88
2023-03-06T09:11:29.518Z,98821.13
2023-03-06T09:12:40.418Z,98814.84
2023-03-06T09:13:50.257Z,98825.09
2023-03-06T09:14:52.679Z,98820.53
2023-03-06T09:15:54.704Z,98815.97
2023-03-06T09:16:56.653Z,98821.06
2023-03-06T09:17:58.798Z,98817.47
2023-03-06T09:19:00.856Z,98816.56
2023-03-06T09:20:02.889Z,98818.31
2023-03-06T09:21:05.892Z,98826.16
2023-03-06T09:22:07.990Z,98819.31
2023-03-06T09:23:10.613Z,98825.53
2023-03-06T09:24:13.106Z,98822.06
2023-03-06T09:25:20.297Z,98825.47
2023-03-06T09:26:28.035Z,98828.00
2023-03-06T09:27:35.217Z,98822.84
2023-03-06T09:28:39.796Z,98821.88
2023-03-06T09:29:41.888Z,98814.00
2023-03-06T09:30:43.935Z,98813.06
2023-03-06T09:31:46.413Z,98815.69
2023-03-06T09:32:48.617Z,98821.84
2023-03-06T09:33:50.753Z,98820.09
2023-03-06T09:34:52.757Z,98818.44
2023-03-06T09:35:58.828Z,98820.16
2023-03-06T09:37:02.968Z,98828.84
2023-03-06T09:38:04.751Z,98830.31
2023-03-06T09:39:06.713Z,98829.50
2023-03-06T09:40:35.517Z,98834.72
2023-03-06T09:41:40.866Z,98835.31
2023-03-06T09:42:42.977Z,98829.81
2023-03-06T09:43:48.364Z,98838.41
2023-03-06T09:45:00.636Z,98837.28
2023-03-06T09:46:31.728Z,98833.16
2023-03-06T09:48:04.090Z,98831.53
2023-03-06T09:49:18.229Z,98841.44
2023-03-06T09:50:29.240Z,98837.16
2023-03-06T09:51:51.477Z,98837.47
2023-03-06T09:53:05.264Z,98836.94
2023-03-06T09:54:15.202Z,98840.59
2023-03-06T09:55:24.423Z,98838.16
2023-03-06T09:56:31.974Z,98834.25
2023-03-06T09:57:42.588Z,98841.47
2023-03-06T09:58:50.148Z,98838.41
2023-03-06T09:59:55.698Z,98846.44
2023-03-06T10:01:05.183Z,98841.25
2023-03-06T10:02:25.866Z,98843.09
2023-03-06T10:03:48.767Z,98837.97
2023-03-06T10:04:59.492Z,98840.78
2023-03-06T10:06:21.832Z,98857.38
2023-03-06T10:07:41.275Z,98853.88
2023-03-06T10:08:55.569Z,98841.84
2023-03-06T10:10:02.723Z,98847.38
2023-03-06T10:11:10.098Z,98849.34
2023-03-06T10:12:24.802Z,98848.47
2023-03-06T10:13:38.199Z,98846.59
2023-03-06T10:14:55.609Z,98846.88
2023-03-06T10:16:27.308Z,98847.69
2023-03-06T10:17:35.941Z,98850.53
2023-03-06T10:18:39.257Z,98849.81
2023-03-06T10:19:42.544Z,98851.56
2023-03-06T10:20:49.054Z,98854.13
2023-03-06T10:22:19.799Z,98848.81
2023-03-06T10:23:27.573Z,98853.91
2023-03-06T10:24:45.412Z,98853.84
2023-03-06T10:26:01.352Z,98851.97
2023-03-06T10:27:21.676Z,98858.81
2023-03-06T10:28:34.458Z,98863.84
2023-03-06T10:30:02.638Z,98863.69
2023-03-06T10:31:11.144Z,98856.38
2023-03-06T10:32:48.297Z,98855.25
2023-03-06T10:34:02.488Z,98852.19
2023-03-06T10:35:15.810Z,98855.34
2023-03-06T10:36:20.203Z,98853.00
2023-03-06T10:37:23.194Z,98848.97
2023-03-06T10:38:32.227Z,98855.25
2023-03-06T10:39:34.949Z,98855.63
2023-03-06T10:40:47.802Z,98857.00
2023-03-06T10:41:50.513Z,98859.50
2023-03-06T10:43:05.106Z,98856.94
2023-03-06T10:44:12.924Z,98859.81
2023-03-06T10:45:17.764Z,98862.78
2023-03-06T10:46:28.974Z,98866.56
2023-03-06T10:47:35.457Z,98856.31
2023-03-06T10:48:41.992Z,98864.53
2023-03-06T10:49:58.103Z,98858.66
2023-03-06T10:51:24.492Z,98864.19
2023-03-06T10:52:30.262Z,98864.34
2023-03-06T10:53:33.162Z,98864.50
2023-03-06T10:54:37.870Z,98864.75
2023-03-06T10:55:40.300Z,98866.69
2023-03-06T10:56:44.193Z,98867.59
2023-03-06T10:57:46.267Z,98863.25
2023-03-06T10:58:48.216Z,98863.25
2023-03-06T11:00:04.049Z,98864.13
2023-03-06T11:01:18.835Z,98869.44
2023-03-06T11:02:33.539Z,98867.59
2023-03-06T11:03:38.649Z,98874.50
2023-03-06T11:04:46.273Z,98876.34
2023-03-06T11:06:13.009Z,98870.13
2023-03-06T11:07:18.386Z,98878.81
2023-03-06T11:08:22.963Z,98875.28
2023-03-06T11:09:26.457Z,98877.00
2023-03-06T11:10:29.959Z,98884.75
2023-03-06T11:11:37.761Z,98877.66
2023-03-06T11:12:42.643Z,98877.50
2023-03-06T11:13:45.319Z,98873.09
2023-03-06T11:14:47.598Z,98880.19
2023-03-06T11:15:59.934Z,98879.31
2023-03-06T11:17:01.914Z,98874.22
2023-03-06T11:18:19.900Z,98876.84
2023-03-06T11:19:25.967Z,98874.34
2023-03-06T11:20:52.827Z,98879.66
2023-03-06T11:22:16.390Z,98886.75
2023-03-06T11:23:29.287Z,98883.44
2023-03-06T11:24:46.709Z,98886.06
2023-03-06T11:26:01.411Z,98883.59
2023-03-06T11:27:34.690Z,98877.44
2023-03-06T11:28:46.405Z,98881.75
2023-03-06T11:29:55.089Z,98884.31
2023-03-06T11:31:06.106Z,98878.22
2023-03-06T11:32:29.872Z,98880.63
2023-03-06T11:33:56.746Z,98877.94
2023-03-06T11:35:10.741Z,98879.66
2023-03-06T11:36:37.454Z,98878.75
2023-03-06T11:37:57.700Z,98874.38
2023-03-06T11:39:00.333Z,98879.69
2023-03-06T11:40:11.461Z,98870.19
2023-03-06T11:41:26.591Z,98879.09
2023-03-06T11:42:48.066Z,98873.06
2023-03-06T11:44:01.140Z,98866.16
2023-03-06T11:45:24.817Z,98872.28
2023-03-06T11:46:39.175Z,98866.19
2023-03-06T11:48:00.462Z,98867.19
2023-03-06T11:49:19.488Z,98871.53
2023-03-06T11:50:55.615Z,98871.44
2023-03-06T11:52:07.136Z,98874.81
2023-03-06T11:53:16.162Z,98869.53
2023-03-06T11:54:18.158Z,98863.34
2023-03-06T11:55:54.224Z,98865.03
2023-03-06T11:57:05.135Z,98862.44
2023-03-06T11:58:09.788Z,98866.75
2023-03-06T11:59:39.011Z,98868.28
2023-03-06T12:00:54.504Z,98864.66
2023-03-06T12:02:14.828Z,98860.19
2023-03-06T12:03:31.980Z,98862.47
2023-03-06T12:05:00.486Z,98859.53
2023-03-06T12:06:22.539Z,98849.97
2023-03-06T12:07:41.414Z,98855.13
2023-03-06T12:08:57.337Z,98851.50
2023-03-06T12:10:31.007Z,98855.84
2023-03-06T12:12:00.503Z,98858.53
2023-03-06T12:13:20.745Z,98860.44
2023-03-06T12:14:55.653Z,98848.28
2023-03-06T12:16:35.092Z,98844.94
2023-03-06T12:17:55.234Z,98844.56
2023-03-06T12:19:18.792Z,98847.56
2023-03-06T12:20:45.933Z,98845.81
2023-03-06T12:21:47.846Z,98848.50
2023-03-06T12:23:15.303Z,98853.81
2023-03-06T12:25:00.755Z,98848.56
2023-03-06T12:26:22.128Z,98847.75
2023-03-06T12:27:48.946Z,98853.88
2023-03-06T12:29:25.892Z,98848.66
2023-03-06T12:30:36.558Z,98847.91
2023-03-06T12:32:17.099Z,98849.72
2023-03-06T12:33:56.286Z,98844.47
2023-03-06T12:35:25.511Z,98848.78
2023-03-06T12:36:30.259Z,98849.59
2023-03-06T12:38:06.536Z,98846.19
2023-03-06T12:39:52.349Z,98854.16
2023-03-06T12:40:54.493Z,98853.41
2023-03-06T12:42:11.295Z,98855.41
2023-03-06T12:43:33.777Z,98848.56
2023-03-06T12:45:12.876Z,98854.78
2023-03-06T12:46:23.210Z,98855.66
2023-03-06T12:47:28.336Z,98855.69
2023-03-06T12:48:36.633Z,98852.22
2023-03-06T12:49:44.045Z,98860.16
2023-03-06T12:50:46.770Z,98864.63
2023-03-06T12:51:49.124Z,98866.50
2023-03-06T12:52:54.024Z,98867.44